Time;durP1;ratioP1;P1;durP2;ratioP2;P2;SDS_P1;SDS_P2;PMS_P1;PMS_P2;Temp;Humidity;BMP_temperature;BMP_pressure;BME280_temperature;BME280_humidity;BME280_pressure;Samples;Min_cycle;Max_cycle;Signal;HPM_P1;HPM_P2
2021/11/30 00:00:08;;;;;;;;;;;0.90;99.90;;;;;;5115811;28;19984;-46
2021/11/30 00:02:35;;;;;;;;;;;0.80;99.90;;;;;;5114921;28;19932;-47
2021/11/30 00:05:02;;;;;;;;;;;0.80;99.90;;;;;;5115256;28;19969;-47
2021/11/30 00:07:29;;;;;;;;;;;0.80;99.90;;;;;;5115343;28;19924;-46
2021/11/30 00:12:41;;;;;;;;;;;0.90;99.90;;;;;;5115442;28;20432;-47
2021/11/30 00:15:08;;;;;;;;;;;0.90;99.90;;;;;;5114833;28;19923;-47
2021/11/30 00:17:35;;;;;;;;;;;1.10;99.90;;;;;;5114811;28;19997;-47
2021/11/30 00:20:03;;;;;;;;;;;1.10;99.90;;;;;;5115504;28;19927;-47
2021/11/30 00:22:32;;;;;;;;;;;1.00;99.90;;;;;;5115165;28;19946;-47
2021/11/30 00:24:59;;;;;;;;;;;1.00;99.90;;;;;;5115074;28;19930;-46
2021/11/30 00:27:26;;;;;;;;;;;1.00;99.90;;;;;;5115170;28;20385;-47
2021/11/30 00:29:54;;;;;;;;;;;1.00;99.90;;;;;;5114489;28;20034;-46
2021/11/30 00:32:21;;;;;;;;;;;1.00;99.90;;;;;;5115180;28;19975;-47
2021/11/30 00:34:47;;;;;;;;;;;0.90;99.90;;;;;;5115247;28;19923;-47
2021/11/30 00:37:14;;;;;;;;;;;0.80;99.90;;;;;;5114619;28;19977;-47
2021/11/30 00:39:41;;;;;;;;;;;0.80;99.90;;;;;;5114163;28;19986;-48
2021/11/30 00:42:08;;;;;;;;;;;0.90;99.90;;;;;;5113939;28;19966;-47
2021/11/30 00:44:37;;;;;;;;;;;0.80;99.90;;;;;;5114329;28;19931;-47
2021/11/30 00:47:05;;;;;;;;;;;0.80;99.90;;;;;;5114975;28;20305;-47
2021/11/30 00:49:32;;;;;;;;;;;0.80;99.90;;;;;;5114861;28;19928;-46
2021/11/30 00:51:59;;;;;;;;;;;0.80;99.90;;;;;;5114377;28;19961;-47
2021/11/30 00:54:28;;;;;;;;;;;0.90;99.90;;;;;;5114737;28;19927;-46
2021/11/30 00:56:54;;;;;;;;;;;1.10;99.90;;;;;;5114332;28;20344;-46
2021/11/30 00:59:26;;;;;;;;;;;1.10;99.90;;;;;;5114048;28;20400;-47
2021/11/30 01:01:53;;;;;;;;;;;1.20;99.90;;;;;;5114301;28;19923;-47
2021/11/30 01:04:21;;;;;;;;;;;1.10;99.90;;;;;;5114245;28;19924;-47
2021/11/30 01:06:48;;;;;;;;;;;1.20;99.90;;;;;;5114236;28;19924;-47
2021/11/30 01:09:15;;;;;;;;;;;1.00;99.90;;;;;;5114097;28;19969;-46
2021/11/30 01:11:44;;;;;;;;;;;1.10;99.90;;;;;;5112324;28;20383;-47
2021/11/30 01:14:10;;;;;;;;;;;1.00;99.90;;;;;;5114206;28;19923;-47
2021/11/30 01:16:38;;;;;;;;;;;1.10;99.90;;;;;;5114486;28;19981;-47
2021/11/30 01:19:05;;;;;;;;;;;0.90;99.90;;;;;;5114543;28;19980;-47
2021/11/30 01:21:34;;;;;;;;;;;1.00;99.90;;;;;;5113955;28;19927;-47
2021/11/30 01:24:00;;;;;;;;;;;1.10;99.90;;;;;;5114434;28;19928;-47
2021/11/30 01:26:27;;;;;;;;;;;1.30;99.90;;;;;;5113510;28;19927;-47
2021/11/30 01:28:54;;;;;;;;;;;1.40;99.90;;;;;;5114204;28;19924;-47
2021/11/30 01:31:21;;;;;;;;;;;1.50;99.90;;;;;;5113357;28;19924;-46
2021/11/30 01:33:47;;;;;;;;;;;1.50;99.90;;;;;;5114038;28;19965;-47
2021/11/30 01:36:14;;;;;;;;;;;1.50;99.90;;;;;;5113877;28;20389;-47
2021/11/30 01:38:42;;;;;;;;;;;1.50;99.90;;;;;;5113532;28;19977;-46
2021/11/30 01:41:11;;;;;;;;;;;1.50;99.90;;;;;;5112977;28;19927;-46
2021/11/30 01:43:41;;;;;;;;;;;1.60;99.90;;;;;;5113802;28;19924;-47
2021/11/30 01:46:11;;;;;;;;;;;1.30;99.90;;;;;;5113596;28;19973;-46
2021/11/30 01:51:23;;;;;;;;;;;1.40;99.90;;;;;;5112654;28;19931;-47
2021/11/30 01:53:52;;;;;;;;;;;1.50;99.90;;;;;;5108464;28;19924;-46
2021/11/30 01:56:19;;;;;;;;;;;1.40;99.90;;;;;;5113683;28;19923;-47
2021/11/30 01:58:46;;;;;;;;;;;1.40;99.90;;;;;;5113776;28;19972;-47
2021/11/30 02:01:13;;;;;;;;;;;1.60;99.90;;;;;;5113285;28;19931;-47
2021/11/30 02:03:40;;;;;;;;;;;1.80;99.90;;;;;;5113044;28;20398;-46
2021/11/30 02:06:07;;;;;;;;;;;1.60;99.90;;;;;;5113175;28;19980;-47
2021/11/30 02:08:33;;;;;;;;;;;1.70;99.90;;;;;;5113128;28;19981;-47
2021/11/30 02:11:02;;;;;;;;;;;1.80;99.90;;;;;;5112207;28;20389;-47
2021/11/30 02:13:29;;;;;;;;;;;2.00;99.90;;;;;;5112879;28;19924;-47
2021/11/30 02:15:58;;;;;;;;;;;1.90;99.90;;;;;;5113123;28;19988;-46
2021/11/30 02:18:25;;;;;;;;;;;1.90;99.90;;;;;;5112997;28;19923;-47
2021/11/30 02:20:55;;;;;;;;;;;1.80;99.90;;;;;;5112271;28;19927;-46
2021/11/30 02:23:38;;;;;;;;;;;1.80;99.90;;;;;;5112769;28;19931;-46
2021/11/30 02:26:07;;;;;;;;;;;1.80;99.90;;;;;;5112999;28;19927;-47
2021/11/30 02:28:34;;;;;;;;;;;1.80;99.90;;;;;;5112553;28;20385;-46
2021/11/30 02:31:01;;;;;;;;;;;1.90;99.90;;;;;;5100695;28;19923;-46
2021/11/30 02:33:28;;;;;;;;;;;2.00;99.90;;;;;;5112480;28;19923;-46
2021/11/30 02:35:56;;;;;;;;;;;2.00;99.90;;;;;;5111819;28;20036;-47
2021/11/30 02:38:23;;;;;;;;;;;2.00;99.90;;;;;;5112667;28;20027;-47
2021/11/30 02:40:50;;;;;;;;;;;2.00;99.90;;;;;;5112043;28;20358;-46
2021/11/30 02:43:17;;;;;;;;;;;2.00;99.90;;;;;;5112882;28;20347;-47
2021/11/30 02:45:44;;;;;;;;;;;2.00;99.90;;;;;;5112914;28;19924;-47
2021/11/30 02:48:11;;;;;;;;;;;2.20;99.90;;;;;;5112254;28;20454;-47
2021/11/30 02:50:41;;;;;;;;;;;2.20;99.90;;;;;;5112157;28;19927;-46
2021/11/30 02:53:15;;;;;;;;;;;1.90;99.90;;;;;;5107660;28;19963;-47
2021/11/30 02:55:42;;;;;;;;;;;1.80;99.90;;;;;;5112925;28;19977;-46
2021/11/30 02:58:09;;;;;;;;;;;1.80;99.90;;;;;;5112588;28;19969;-47
2021/11/30 03:00:35;;;;;;;;;;;1.90;99.90;;;;;;5112324;28;19976;-47
2021/11/30 03:03:02;;;;;;;;;;;1.90;99.90;;;;;;5116847;28;20010;-47
2021/11/30 03:05:29;;;;;;;;;;;1.90;99.90;;;;;;5119105;28;19977;-47
2021/11/30 03:07:56;;;;;;;;;;;1.90;99.90;;;;;;5119124;28;19931;-47
2021/11/30 03:10:24;;;;;;;;;;;1.80;99.90;;;;;;5118662;28;19927;-46
2021/11/30 03:12:51;;;;;;;;;;;1.60;99.90;;;;;;5119542;28;19989;-47
2021/11/30 03:15:19;;;;;;;;;;;1.60;99.90;;;;;;5118916;28;19932;-47
2021/11/30 03:17:46;;;;;;;;;;;1.60;99.90;;;;;;5119331;28;19924;-46
2021/11/30 03:20:15;;;;;;;;;;;1.60;99.90;;;;;;5118813;28;20558;-47
2021/11/30 03:22:42;;;;;;;;;;;2.00;99.90;;;;;;5119259;28;19976;-47
2021/11/30 03:25:09;;;;;;;;;;;2.20;99.90;;;;;;5118791;28;19924;-47
2021/11/30 03:27:38;;;;;;;;;;;2.20;99.90;;;;;;5118938;28;19924;-45
2021/11/30 03:30:05;;;;;;;;;;;2.30;99.90;;;;;;5117438;28;19928;-47
2021/11/30 03:35:16;;;;;;;;;;;2.10;99.90;;;;;;5118614;28;19926;-46
2021/11/30 03:37:46;;;;;;;;;;;2.00;99.90;;;;;;5118471;28;19923;-47
2021/11/30 03:40:13;;;;;;;;;;;2.20;99.90;;;;;;5118652;28;19930;-47
2021/11/30 03:42:41;;;;;;;;;;;2.00;99.90;;;;;;5118957;28;19989;-47
2021/11/30 03:45:08;;;;;;;;;;;2.10;99.90;;;;;;5118484;28;19928;-47
2021/11/30 03:47:35;;;;;;;;;;;1.90;99.90;;;;;;5118762;28;20378;-46
2021/11/30 03:50:02;;;;;;;;;;;1.90;99.90;;;;;;5098601;28;19924;-46
2021/11/30 03:52:29;;;;;;;;;;;1.80;99.90;;;;;;5104362;28;19924;-47
2021/11/30 03:54:55;;;;;;;;;;;1.90;99.90;;;;;;5118996;28;19977;-46
2021/11/30 03:57:22;;;;;;;;;;;1.80;99.90;;;;;;5118586;28;20347;-47
2021/11/30 03:59:50;;;;;;;;;;;1.90;99.90;;;;;;5118232;28;19923;-47
2021/11/30 04:02:17;;;;;;;;;;;1.90;99.90;;;;;;5118748;28;20347;-47
2021/11/30 04:04:45;;;;;;;;;;;1.90;99.90;;;;;;5118008;28;20474;-46
2021/11/30 04:07:14;;;;;;;;;;;1.90;99.90;;;;;;5118037;28;19924;-45
2021/11/30 04:09:41;;;;;;;;;;;2.00;99.90;;;;;;5118958;28;20328;-47
2021/11/30 04:12:08;;;;;;;;;;;2.00;99.90;;;;;;5118381;28;19923;-47
2021/11/30 04:14:35;;;;;;;;;;;2.00;99.90;;;;;;5115178;28;19924;-51
2021/11/30 04:17:06;;;;;;;;;;;1.80;99.90;;;;;;5115430;28;19977;-49
2021/11/30 04:19:32;;;;;;;;;;;1.90;99.90;;;;;;5115462;28;19924;-48
2021/11/30 04:21:59;;;;;;;;;;;1.90;99.90;;;;;;5115200;28;19927;-48
2021/11/30 04:24:29;;;;;;;;;;;1.90;99.90;;;;;;5115017;28;19924;-49
2021/11/30 04:26:56;;;;;;;;;;;1.90;99.90;;;;;;5115132;28;19936;-46
2021/11/30 04:29:23;;;;;;;;;;;1.90;99.90;;;;;;5114958;28;19927;-47
2021/11/30 04:31:50;;;;;;;;;;;2.10;99.90;;;;;;5114928;28;20059;-47
2021/11/30 04:34:18;;;;;;;;;;;2.10;99.90;;;;;;5114937;28;19923;-46
2021/11/30 04:36:45;;;;;;;;;;;2.00;99.90;;;;;;5115261;28;20006;-47
2021/11/30 04:39:11;;;;;;;;;;;2.10;99.90;;;;;;5114892;28;19924;-48
2021/11/30 04:41:40;;;;;;;;;;;1.90;99.90;;;;;;5114973;28;19927;-46
2021/11/30 04:44:09;;;;;;;;;;;1.90;99.90;;;;;;5115160;28;19924;-46
2021/11/30 04:46:44;;;;;;;;;;;1.80;99.90;;;;;;5114983;28;19931;-47
2021/11/30 04:49:15;;;;;;;;;;;1.90;99.90;;;;;;5114729;28;19924;-47
2021/11/30 04:51:44;;;;;;;;;;;2.00;99.90;;;;;;5114347;28;20392;-47
2021/11/30 04:54:10;;;;;;;;;;;1.80;99.90;;;;;;5100466;28;20624;-47
2021/11/30 04:56:38;;;;;;;;;;;1.50;99.90;;;;;;5114560;28;19927;-46
2021/11/30 04:59:05;;;;;;;;;;;1.70;99.90;;;;;;5137494;22;19927;-51
2021/11/30 05:01:31;;;;;;;;;;;1.80;99.90;;;;;;5114062;28;19989;-52
2021/11/30 05:03:59;;;;;;;;;;;1.60;99.90;;;;;;5112028;28;20000;-52
2021/11/30 05:06:26;;;;;;;;;;;1.60;99.90;;;;;;5094378;28;19950;-52
2021/11/30 05:08:54;;;;;;;;;;;1.60;99.90;;;;;;5094376;28;19946;-52
2021/11/30 05:11:21;;;;;;;;;;;1.70;99.90;;;;;;5093987;28;19928;-53
2021/11/30 05:13:48;;;;;;;;;;;1.50;99.90;;;;;;5094473;28;19985;-53
2021/11/30 05:16:14;;;;;;;;;;;1.40;99.90;;;;;;5108102;28;20381;-53
2021/11/30 05:18:42;;;;;;;;;;;1.50;99.90;;;;;;5114003;28;19984;-53
2021/11/30 05:21:09;;;;;;;;;;;1.60;99.90;;;;;;5113965;28;19924;-53
2021/11/30 05:23:36;;;;;;;;;;;1.60;99.90;;;;;;5114425;28;19969;-53
2021/11/30 05:26:05;;;;;;;;;;;1.70;99.90;;;;;;5114025;28;19932;-53
2021/11/30 05:28:33;;;;;;;;;;;1.60;99.90;;;;;;5112783;28;19978;-53
2021/11/30 05:31:01;;;;;;;;;;;1.50;99.90;;;;;;5113933;28;19976;-52
2021/11/30 05:33:28;;;;;;;;;;;1.40;99.90;;;;;;5114163;28;19924;-52
2021/11/30 05:35:54;;;;;;;;;;;1.50;99.90;;;;;;5114153;28;19927;-52
2021/11/30 05:38:22;;;;;;;;;;;1.60;99.90;;;;;;5114237;28;19965;-52
2021/11/30 05:40:49;;;;;;;;;;;1.70;99.90;;;;;;5113494;28;20385;-52
2021/11/30 05:43:17;;;;;;;;;;;1.70;99.90;;;;;;5114166;28;19984;-52
2021/11/30 05:45:44;;;;;;;;;;;1.70;99.90;;;;;;5112259;28;20113;-53
2021/11/30 05:48:11;;;;;;;;;;;1.70;99.90;;;;;;5113841;28;19928;-53
2021/11/30 05:50:38;;;;;;;;;;;1.60;99.90;;;;;;5113525;28;19924;-52
2021/11/30 05:53:05;;;;;;;;;;;1.70;99.90;;;;;;5113659;28;19973;-53
2021/11/30 05:55:32;;;;;;;;;;;1.60;99.90;;;;;;5095525;28;20340;-52
2021/11/30 05:57:59;;;;;;;;;;;1.60;99.90;;;;;;5093551;28;19924;-53
2021/11/30 06:00:29;;;;;;;;;;;1.70;99.90;;;;;;5092903;28;20031;-51
2021/11/30 06:03:03;;;;;;;;;;;1.80;99.90;;;;;;5094490;28;20006;-53
2021/11/30 06:05:31;;;;;;;;;;;1.80;99.90;;;;;;5093190;28;19924;-53
2021/11/30 06:07:58;;;;;;;;;;;1.90;99.90;;;;;;5093318;28;19978;-53
2021/11/30 06:10:25;;;;;;;;;;;1.80;99.90;;;;;;5092883;28;20352;-53
2021/11/30 06:12:52;;;;;;;;;;;1.70;99.90;;;;;;5093193;28;19965;-53
2021/11/30 06:15:19;;;;;;;;;;;1.70;99.90;;;;;;5092960;28;19928;-53
2021/11/30 06:17:47;;;;;;;;;;;1.80;99.90;;;;;;5095282;28;19994;-53
2021/11/30 06:20:16;;;;;;;;;;;1.90;99.90;;;;;;5113046;28;20452;-51
2021/11/30 06:22:44;;;;;;;;;;;1.90;99.90;;;;;;5113424;28;20339;-53
2021/11/30 06:25:11;;;;;;;;;;;2.00;99.90;;;;;;5113197;28;19923;-53
2021/11/30 06:27:38;;;;;;;;;;;2.00;99.90;;;;;;5112436;28;20401;-51
2021/11/30 06:30:05;;;;;;;;;;;1.90;99.90;;;;;;5112390;28;20397;-53
2021/11/30 06:32:32;;;;;;;;;;;2.00;99.90;;;;;;5112817;28;19984;-51
2021/11/30 06:35:00;;;;;;;;;;;2.10;99.90;;;;;;5112076;28;20381;-52
2021/11/30 06:37:27;;;;;;;;;;;1.90;99.90;;;;;;5112643;28;19927;-53
2021/11/30 06:39:54;;;;;;;;;;;1.90;99.90;;;;;;5106751;27;19924;-51
2021/11/30 06:42:21;;;;;;;;;;;1.80;99.90;;;;;;5112483;28;20006;-53
2021/11/30 06:44:48;;;;;;;;;;;1.80;99.90;;;;;;5103644;28;19981;-52
2021/11/30 06:47:16;;;;;;;;;;;1.60;99.90;;;;;;5111237;28;19923;-52
2021/11/30 06:49:43;;;;;;;;;;;1.60;99.90;;;;;;5107319;28;19928;-53
2021/11/30 06:52:12;;;;;;;;;;;1.50;99.90;;;;;;5093960;28;19924;-52
2021/11/30 06:54:43;;;;;;;;;;;1.50;99.90;;;;;;5095836;28;19928;-53
2021/11/30 06:57:10;;;;;;;;;;;1.50;99.90;;;;;;5104265;28;19924;-52
2021/11/30 06:59:37;;;;;;;;;;;1.50;99.90;;;;;;5112484;28;19924;-53
2021/11/30 07:02:04;;;;;;;;;;;1.70;99.90;;;;;;5100125;28;20378;-52
2021/11/30 07:04:34;;;;;;;;;;;1.70;99.90;;;;;;5092814;28;20398;-53
2021/11/30 07:07:07;;;;;;;;;;;1.60;99.90;;;;;;5112317;28;19923;-50
2021/11/30 07:09:47;;;;;;;;;;;1.50;99.90;;;;;;5112191;28;19928;-53
2021/11/30 07:12:24;;;;;;;;;;;1.50;99.90;;;;;;5100155;28;19927;-53
2021/11/30 07:14:52;;;;;;;;;;;1.40;99.90;;;;;;5093110;28;19928;-52
2021/11/30 07:17:18;;;;;;;;;;;1.40;99.90;;;;;;5109635;28;19923;-52
2021/11/30 07:19:45;;;;;;;;;;;1.20;99.90;;;;;;5098352;28;20308;-53
2021/11/30 07:22:12;;;;;;;;;;;1.20;99.90;;;;;;5106680;28;19924;-53
2021/11/30 07:24:41;;;;;;;;;;;1.20;99.90;;;;;;5099301;28;20394;-53
2021/11/30 07:27:07;;;;;;;;;;;1.20;99.90;;;;;;5104051;28;19974;-52
2021/11/30 07:29:34;;;;;;;;;;;1.20;99.90;;;;;;5112480;28;19928;-52
2021/11/30 07:32:01;;;;;;;;;;;1.10;99.90;;;;;;5111463;28;20339;-52
2021/11/30 07:34:29;;;;;;;;;;;1.20;99.90;;;;;;5108487;28;19924;-54
2021/11/30 07:36:56;;;;;;;;;;;1.10;99.90;;;;;;5098843;28;19935;-52
2021/11/30 07:39:22;;;;;;;;;;;1.10;99.90;;;;;;5106041;28;19924;-52
2021/11/30 07:41:51;;;;;;;;;;;1.20;99.90;;;;;;5109000;28;19928;-52
2021/11/30 07:44:18;;;;;;;;;;;1.40;99.90;;;;;;5112501;28;19993;-53
2021/11/30 07:46:45;;;;;;;;;;;1.40;99.90;;;;;;5105222;28;19970;-53
2021/11/30 07:49:12;;;;;;;;;;;1.30;99.90;;;;;;5102101;28;19924;-53
2021/11/30 07:51:39;;;;;;;;;;;1.40;99.90;;;;;;5097820;28;20455;-53
2021/11/30 07:54:06;;;;;;;;;;;1.60;99.90;;;;;;5099463;28;19924;-52
2021/11/30 07:56:33;;;;;;;;;;;1.50;99.90;;;;;;5113984;28;19977;-54
2021/11/30 07:59:01;;;;;;;;;;;1.60;99.90;;;;;;5114002;28;19924;-53
2021/11/30 08:01:28;;;;;;;;;;;1.60;99.90;;;;;;5114459;28;19938;-54
2021/11/30 08:03:55;;;;;;;;;;;1.70;99.90;;;;;;5103841;28;19939;-53
2021/11/30 08:06:21;;;;;;;;;;;1.70;99.90;;;;;;5115802;28;19927;-53
2021/11/30 08:08:50;;;;;;;;;;;2.00;99.90;;;;;;5115785;28;19973;-52
2021/11/30 08:11:17;;;;;;;;;;;2.10;99.90;;;;;;5097475;28;19963;-54
2021/11/30 08:13:44;;;;;;;;;;;2.10;99.90;;;;;;5095229;28;19970;-52
2021/11/30 08:16:12;;;;;;;;;;;2.00;99.90;;;;;;5110618;28;19937;-52
2021/11/30 08:18:38;;;;;;;;;;;2.00;99.90;;;;;;5115371;28;19928;-53
2021/11/30 08:21:06;;;;;;;;;;;1.90;99.90;;;;;;5105125;28;19928;-54
2021/11/30 08:23:33;;;;;;;;;;;2.10;99.90;;;;;;5103545;28;19923;-53
2021/11/30 08:26:00;;;;;;;;;;;1.80;99.90;;;;;;5115612;28;19928;-53
2021/11/30 08:28:27;;;;;;;;;;;1.90;99.90;;;;;;5115223;28;19931;-53
2021/11/30 08:30:53;;;;;;;;;;;1.80;99.90;;;;;;5112380;28;19976;-53
2021/11/30 08:33:22;;;;;;;;;;;2.00;99.90;;;;;;5102932;28;19969;-52
2021/11/30 08:35:48;;;;;;;;;;;1.90;99.90;;;;;;5094690;28;19986;-52
2021/11/30 08:38:16;;;;;;;;;;;1.90;99.90;;;;;;5094571;28;19931;-54
2021/11/30 08:40:42;;;;;;;;;;;1.80;99.90;;;;;;5100491;27;19928;-54
2021/11/30 08:43:09;;;;;;;;;;;1.90;99.90;;;;;;5113475;28;19931;-52
2021/11/30 08:45:36;;;;;;;;;;;2.00;99.90;;;;;;5112673;28;19928;-53
2021/11/30 08:48:03;;;;;;;;;;;2.20;99.90;;;;;;5097975;28;19937;-53
2021/11/30 08:50:31;;;;;;;;;;;2.30;99.90;;;;;;5093981;28;19928;-54
2021/11/30 08:52:58;;;;;;;;;;;2.30;99.90;;;;;;5094537;28;19985;-53
2021/11/30 08:55:25;;;;;;;;;;;2.50;99.90;;;;;;5094215;28;20422;-53
2021/11/30 08:57:55;;;;;;;;;;;2.40;99.90;;;;;;5099816;28;19939;-54
2021/11/30 09:00:23;;;;;;;;;;;2.40;99.90;;;;;;5113113;28;20385;-53
2021/11/30 09:02:50;;;;;;;;;;;2.30;99.90;;;;;;5106415;28;19924;-53
2021/11/30 09:05:19;;;;;;;;;;;2.60;99.90;;;;;;5114787;28;19928;-53
2021/11/30 09:07:47;;;;;;;;;;;2.70;99.90;;;;;;5113880;28;19938;-52
2021/11/30 09:10:14;;;;;;;;;;;2.60;99.90;;;;;;5115432;28;20048;-53
2021/11/30 09:12:41;;;;;;;;;;;2.70;99.90;;;;;;5103372;28;19973;-53
2021/11/30 09:15:08;;;;;;;;;;;2.70;99.90;;;;;;5097880;28;20026;-52
2021/11/30 09:17:36;;;;;;;;;;;2.80;99.90;;;;;;5098279;28;19928;-53
2021/11/30 09:20:04;;;;;;;;;;;2.70;99.90;;;;;;5097370;28;19925;-53
2021/11/30 09:22:31;;;;;;;;;;;2.70;99.90;;;;;;5105789;28;19927;-53
2021/11/30 09:25:00;;;;;;;;;;;2.70;99.90;;;;;;5116353;28;19967;-51
2021/11/30 09:27:27;;;;;;;;;;;2.80;99.90;;;;;;5117417;28;19924;-52
2021/11/30 09:29:55;;;;;;;;;;;2.70;99.90;;;;;;5116921;28;20492;-53
2021/11/30 09:32:24;;;;;;;;;;;2.80;99.90;;;;;;5112152;28;19992;-52
2021/11/30 09:34:51;;;;;;;;;;;2.80;99.90;;;;;;5115472;28;20410;-51
2021/11/30 09:37:18;;;;;;;;;;;2.70;99.90;;;;;;5099798;28;20364;-52
2021/11/30 09:39:45;;;;;;;;;;;2.50;99.90;;;;;;5097523;28;19946;-53
2021/11/30 09:42:14;;;;;;;;;;;2.50;99.90;;;;;;5097354;28;19953;-53
2021/11/30 09:44:42;;;;;;;;;;;2.70;99.90;;;;;;5095346;28;20572;-53
2021/11/30 09:47:09;;;;;;;;;;;2.70;99.90;;;;;;5093694;28;19963;-52
2021/11/30 09:49:36;;;;;;;;;;;2.60;99.90;;;;;;5093349;28;19928;-53
2021/11/30 09:52:02;;;;;;;;;;;2.50;99.90;;;;;;5094828;28;19932;-52
2021/11/30 09:54:29;;;;;;;;;;;2.80;99.90;;;;;;5101534;28;19924;-53
2021/11/30 09:56:56;;;;;;;;;;;3.00;99.90;;;;;;5098392;28;19980;-53
2021/11/30 09:59:24;;;;;;;;;;;3.00;99.90;;;;;;5113279;28;19924;-54
2021/11/30 10:01:51;;;;;;;;;;;2.70;99.90;;;;;;5110810;28;19931;-53
2021/11/30 10:04:18;;;;;;;;;;;2.70;99.90;;;;;;5106360;28;20446;-53
2021/11/30 10:06:45;;;;;;;;;;;2.60;99.90;;;;;;5105748;28;19923;-52
2021/11/30 10:09:16;;;;;;;;;;;2.60;99.90;;;;;;5104290;28;20021;-53
2021/11/30 10:11:43;;;;;;;;;;;2.60;99.90;;;;;;5091630;28;20402;-53
2021/11/30 10:14:14;;;;;;;;;;;2.40;99.90;;;;;;5092768;28;20435;-54
2021/11/30 10:17:02;;;;;;;;;;;2.40;99.90;;;;;;5092787;28;19930;-53
2021/11/30 10:19:29;;;;;;;;;;;2.40;99.90;;;;;;5094476;28;19969;-52
2021/11/30 10:21:56;;;;;;;;;;;2.30;99.90;;;;;;5112572;28;19928;-52
2021/11/30 10:24:23;;;;;;;;;;;2.30;99.90;;;;;;5113033;28;19928;-52
2021/11/30 10:26:50;;;;;;;;;;;2.40;99.90;;;;;;5099101;28;19928;-52
2021/11/30 10:29:17;;;;;;;;;;;2.40;99.90;;;;;;5092576;28;19978;-52
2021/11/30 10:31:46;;;;;;;;;;;2.40;99.90;;;;;;5092454;28;19993;-54
2021/11/30 10:34:15;;;;;;;;;;;2.30;99.90;;;;;;5092425;28;19928;-53
2021/11/30 10:36:49;;;;;;;;;;;2.40;99.90;;;;;;5092481;28;19969;-52
2021/11/30 10:39:17;;;;;;;;;;;2.20;99.90;;;;;;5107852;28;20440;-54
2021/11/30 10:41:46;;;;;;;;;;;2.10;99.90;;;;;;5103111;28;19970;-54
2021/11/30 10:44:13;;;;;;;;;;;2.20;99.90;;;;;;5093089;28;19924;-51
2021/11/30 10:46:41;;;;;;;;;;;2.00;99.90;;;;;;5102965;28;20003;-53
2021/11/30 10:49:11;;;;;;;;;;;2.30;99.90;;;;;;5108619;28;19924;-52
2021/11/30 10:51:41;;;;;;;;;;;2.30;99.90;;;;;;5096135;28;19966;-53
2021/11/30 10:54:09;;;;;;;;;;;2.20;99.90;;;;;;5096346;28;19928;-54
2021/11/30 10:56:36;;;;;;;;;;;2.20;99.90;;;;;;5112179;28;19947;-53
2021/11/30 10:59:02;;;;;;;;;;;2.10;99.90;;;;;;5112480;28;19924;-51
2021/11/30 11:01:30;;;;;;;;;;;2.10;99.90;;;;;;5092550;28;19954;-51
2021/11/30 11:04:04;;;;;;;;;;;2.20;99.90;;;;;;5092250;28;19928;-51
2021/11/30 11:06:33;;;;;;;;;;;2.30;99.90;;;;;;5096094;28;19924;-52
2021/11/30 11:09:03;;;;;;;;;;;2.50;99.90;;;;;;5112594;28;19931;-52
2021/11/30 11:13:57;;;;;;;;;;;2.80;99.90;;;;;;5140788;22;19927;-49
2021/11/30 11:16:26;;;;;;;;;;;2.60;99.90;;;;;;5124086;28;19924;-49
2021/11/30 11:18:54;;;;;;;;;;;2.40;99.90;;;;;;5112261;28;20014;-50
2021/11/30 11:21:21;;;;;;;;;;;2.50;99.90;;;;;;5112240;28;19931;-48
2021/11/30 11:23:58;;;;;;;;;;;2.50;99.90;;;;;;5128851;27;20351;-48
2021/11/30 11:26:26;;;;;;;;;;;2.50;99.90;;;;;;5136234;27;20306;-49
2021/11/30 11:28:54;;;;;;;;;;;2.60;99.90;;;;;;5136832;27;19927;-48
2021/11/30 11:31:21;;;;;;;;;;;2.60;99.90;;;;;;5135981;27;20418;-48
2021/11/30 11:33:48;;;;;;;;;;;2.50;99.90;;;;;;5132430;27;19937;-49
2021/11/30 11:36:15;;;;;;;;;;;2.70;99.90;;;;;;5136693;27;19923;-48
2021/11/30 11:38:42;;;;;;;;;;;2.40;99.90;;;;;;5136473;27;19923;-48
2021/11/30 11:41:10;;;;;;;;;;;2.30;99.90;;;;;;5136595;27;19923;-48
2021/11/30 11:43:38;;;;;;;;;;;2.40;99.90;;;;;;5136311;27;19991;-47
2021/11/30 11:46:07;;;;;;;;;;;2.30;99.90;;;;;;5127694;27;20018;-47
2021/11/30 11:48:34;;;;;;;;;;;2.50;99.90;;;;;;5129517;27;19924;-48
2021/11/30 11:51:03;;;;;;;;;;;2.40;99.90;;;;;;5135921;27;20011;-49
2021/11/30 11:53:30;;;;;;;;;;;2.50;99.90;;;;;;5138729;27;20010;-48
2021/11/30 11:56:12;;;;;;;;;;;2.50;99.90;;;;;;5141845;27;19960;-48
2021/11/30 11:58:40;;;;;;;;;;;2.50;99.90;;;;;;5139118;27;20001;-48
2021/11/30 12:01:07;;;;;;;;;;;2.40;99.90;;;;;;5138261;27;20040;-49
2021/11/30 12:03:55;;;;;;;;;;;2.50;99.90;;;;;;5132332;27;19935;-48
2021/11/30 12:06:25;;;;;;;;;;;2.60;99.90;;;;;;5128987;27;19923;-48
2021/11/30 12:09:09;;;;;;;;;;;2.60;99.90;;;;;;5141333;27;19930;-50
2021/11/30 12:11:38;;;;;;;;;;;2.40;99.90;;;;;;5133062;27;19980;-49
2021/11/30 12:14:09;;;;;;;;;;;2.40;99.90;;;;;;5132277;27;20296;-49
2021/11/30 12:16:50;;;;;;;;;;;2.30;99.90;;;;;;5138287;27;19927;-48
2021/11/30 12:19:24;;;;;;;;;;;2.10;99.90;;;;;;5134677;27;19923;-49
2021/11/30 12:21:51;;;;;;;;;;;2.30;99.90;;;;;;5134799;27;19983;-48
2021/11/30 12:24:31;;;;;;;;;;;2.40;99.90;;;;;;5135712;27;19930;-50
2021/11/30 12:26:59;;;;;;;;;;;2.40;99.90;;;;;;5135713;27;20658;-48
2021/11/30 12:29:36;;;;;;;;;;;2.30;99.90;;;;;;5139797;27;19927;-48
2021/11/30 12:32:17;;;;;;;;;;;2.30;99.90;;;;;;5147173;27;20006;-48
2021/11/30 12:34:47;;;;;;;;;;;2.10;99.90;;;;;;5132496;27;19960;-51
2021/11/30 12:37:16;;;;;;;;;;;2.20;99.90;;;;;;5135250;27;19923;-50
2021/11/30 12:39:56;;;;;;;;;;;2.10;99.90;;;;;;5135437;27;19927;-49
2021/11/30 12:42:24;;;;;;;;;;;2.10;99.90;;;;;;5124815;27;20030;-49
2021/11/30 12:44:51;;;;;;;;;;;1.80;99.90;;;;;;5114739;28;20321;-49
2021/11/30 12:47:18;;;;;;;;;;;1.80;99.90;;;;;;5122956;27;20388;-49
2021/11/30 12:49:46;;;;;;;;;;;1.90;99.90;;;;;;5134149;27;19984;-49
2021/11/30 12:52:15;;;;;;;;;;;1.70;99.90;;;;;;5135052;27;19924;-50
2021/11/30 12:54:42;;;;;;;;;;;1.70;99.90;;;;;;5135146;27;19923;-49
2021/11/30 12:57:10;;;;;;;;;;;1.80;99.90;;;;;;5134585;27;19964;-49
2021/11/30 12:59:58;;;;;;;;;;;1.70;99.90;;;;;;5135019;27;19927;-49
2021/11/30 13:02:28;;;;;;;;;;;1.70;99.90;;;;;;5131167;27;19923;-51
2021/11/30 13:04:55;;;;;;;;;;;1.60;99.90;;;;;;5134944;27;20262;-50
2021/11/30 13:07:23;;;;;;;;;;;1.60;99.90;;;;;;5140974;27;20018;-49
2021/11/30 13:09:51;;;;;;;;;;;1.50;99.90;;;;;;5136930;27;19923;-49
2021/11/30 13:12:19;;;;;;;;;;;1.60;99.90;;;;;;5133680;27;20316;-51
2021/11/30 13:14:46;;;;;;;;;;;1.90;99.90;;;;;;5133983;27;19924;-49
2021/11/30 13:17:13;;;;;;;;;;;1.90;99.90;;;;;;5135069;27;19927;-48
2021/11/30 13:19:42;;;;;;;;;;;2.00;99.90;;;;;;5134737;27;19927;-49
2021/11/30 13:22:09;;;;;;;;;;;1.80;99.90;;;;;;5134370;27;19924;-49
2021/11/30 13:24:37;;;;;;;;;;;2.00;99.90;;;;;;5134660;27;19923;-49
2021/11/30 13:27:11;;;;;;;;;;;1.90;99.90;;;;;;5134862;27;19927;-49
2021/11/30 13:29:38;;;;;;;;;;;1.80;99.90;;;;;;5134498;27;20377;-49
2021/11/30 13:32:06;;;;;;;;;;;1.80;99.90;;;;;;5142399;27;20416;-51
2021/11/30 13:34:33;;;;;;;;;;;1.90;99.90;;;;;;5154982;27;19923;-49
2021/11/30 13:37:10;;;;;;;;;;;1.70;99.90;;;;;;5144177;27;20328;-50
2021/11/30 13:39:43;;;;;;;;;;;1.70;99.90;;;;;;5112610;28;19924;-49
2021/11/30 13:42:10;;;;;;;;;;;1.70;99.90;;;;;;5113625;28;19924;-49
2021/11/30 13:44:36;;;;;;;;;;;1.70;99.90;;;;;;5132425;27;19930;-49
2021/11/30 13:47:08;;;;;;;;;;;1.80;99.90;;;;;;5134289;27;19969;-49
2021/11/30 13:49:39;;;;;;;;;;;1.80;99.90;;;;;;5134064;27;19923;-49
2021/11/30 13:52:18;;;;;;;;;;;1.90;99.90;;;;;;5133812;27;19924;-50
2021/11/30 13:54:50;;;;;;;;;;;1.70;99.90;;;;;;5134303;27;19923;-49
2021/11/30 13:57:19;;;;;;;;;;;1.70;99.90;;;;;;5146081;27;20001;-49
2021/11/30 13:59:51;;;;;;;;;;;1.80;99.90;;;;;;5154774;27;19923;-51
2021/11/30 14:02:18;;;;;;;;;;;1.80;99.90;;;;;;5154776;27;19933;-50
2021/11/30 14:04:45;;;;;;;;;;;1.80;99.90;;;;;;5154690;27;19923;-49
2021/11/30 14:07:13;;;;;;;;;;;1.70;99.90;;;;;;5143537;27;19923;-49
2021/11/30 14:09:43;;;;;;;;;;;1.80;99.90;;;;;;5133514;27;20338;-49
2021/11/30 14:12:12;;;;;;;;;;;1.70;99.90;;;;;;5132631;27;19976;-49
2021/11/30 14:14:42;;;;;;;;;;;1.60;99.90;;;;;;5133805;27;20019;-50
2021/11/30 14:17:09;;;;;;;;;;;1.70;99.90;;;;;;5133881;27;19936;-50
2021/11/30 14:19:37;;;;;;;;;;;1.80;99.90;;;;;;5134017;27;19923;-48
2021/11/30 14:22:05;;;;;;;;;;;1.60;99.90;;;;;;5133589;27;20338;-49
2021/11/30 14:24:48;;;;;;;;;;;1.70;99.90;;;;;;5133842;27;19923;-49
2021/11/30 14:27:15;;;;;;;;;;;1.60;99.90;;;;;;5144434;27;19976;-49
2021/11/30 14:29:44;;;;;;;;;;;1.60;99.90;;;;;;5154181;27;19923;-48
2021/11/30 14:32:14;;;;;;;;;;;1.70;99.90;;;;;;5150208;27;19959;-48
2021/11/30 14:34:41;;;;;;;;;;;1.60;99.90;;;;;;5133420;27;19930;-49
2021/11/30 14:37:25;;;;;;;;;;;1.40;99.90;;;;;;5131476;27;19931;-48
2021/11/30 14:40:08;;;;;;;;;;;1.50;99.90;;;;;;5132238;27;19932;-49
2021/11/30 14:42:36;;;;;;;;;;;1.60;99.90;;;;;;5133397;27;20343;-48
2021/11/30 14:45:16;;;;;;;;;;;1.40;99.90;;;;;;5133220;27;20461;-48
2021/11/30 14:47:43;;;;;;;;;;;1.40;99.90;;;;;;5146616;27;19952;-48